Time;durP1;ratioP1;P1;durP2;ratioP2;P2;SDS_P1;SDS_P2;PMS_P1;PMS_P2;Temp;Humidity;BMP_temperature;BMP_pressure;BME280_temperature;BME280_humidity;BME280_pressure;Samples;Min_cycle;Max_cycle;Signal;HPM_P1;HPM_P2
2023/12/19 00:01:16;;;;;;;19.80;9.50;;;;;;;7.46;72.61;101442.30;124963;1099;107881;-83
2023/12/19 00:03:47;;;;;;;22.07;9.87;;;;;;;7.42;72.34;101439.39;125058;1099;104236;-81
2023/12/19 00:06:18;;;;;;;24.13;9.57;;;;;;;7.39;71.92;101440.13;125043;1099;102423;-82
2023/12/19 00:08:52;;;;;;;20.95;9.73;;;;;;;7.39;71.90;101440.13;125282;1099;104233;-83
2023/12/19 00:11:23;;;;;;;21.63;9.63;;;;;;;7.40;71.81;101444.52;125143;1099;103224;-83
2023/12/19 00:13:54;;;;;;;23.47;10.80;;;;;;;7.40;73.15;101441.91;125037;1099;102137;-82
2023/12/19 00:16:26;;;;;;;20.83;9.37;;;;;;;7.37;73.21;101437.42;125106;1099;101875;-81
2023/12/19 00:18:58;;;;;;;22.13;11.10;;;;;;;7.34;72.24;101441.55;125107;1099;104226;-82
2023/12/19 00:21:29;;;;;;;25.57;11.10;;;;;;;7.33;73.85;101442.34;125417;1099;101848;-81
2023/12/19 00:24:00;;;;;;;22.65;10.60;;;;;;;7.31;73.41;101441.36;125575;1099;103158;-81
2023/12/19 00:26:31;;;;;;;19.87;10.20;;;;;;;7.29;74.16;101441.25;125385;1099;102333;-82
2023/12/19 00:29:02;;;;;;;21.63;10.13;;;;;;;7.27;73.68;101426.28;125050;1099;102065;-83
2023/12/19 00:31:33;;;;;;;20.37;10.03;;;;;;;7.26;75.24;101428.01;125015;1099;103185;-81
2023/12/19 00:34:04;;;;;;;21.17;10.10;;;;;;;7.21;74.79;101416.34;125565;1099;101830;-83
2023/12/19 00:36:37;;;;;;;20.97;10.17;;;;;;;7.21;75.61;101424.17;125064;1098;104300;-83
2023/12/19 00:39:09;;;;;;;22.60;9.90;;;;;;;7.18;76.38;101432.73;125522;1099;104111;-81
2023/12/19 00:41:40;;;;;;;20.57;10.57;;;;;;;7.11;75.29;101424.41;125126;1099;102087;-83
2023/12/19 00:44:11;;;;;;;22.07;10.27;;;;;;;7.11;75.54;101429.63;125589;1099;102172;-82
2023/12/19 00:46:43;;;;;;;20.47;10.17;;;;;;;7.08;75.08;101426.82;124987;1099;104210;-83
2023/12/19 00:49:14;;;;;;;22.27;10.40;;;;;;;7.07;75.71;101428.50;124991;1099;104309;-83
2023/12/19 00:51:45;;;;;;;22.13;10.40;;;;;;;7.03;75.88;101426.52;125280;1099;101849;-82
2023/12/19 00:54:16;;;;;;;22.37;9.80;;;;;;;7.01;75.27;101423.81;127112;1099;104098;-82
2023/12/19 00:56:47;;;;;;;23.53;10.70;;;;;;;7.01;75.30;101420.28;125243;1099;102345;-82
2023/12/19 00:59:20;;;;;;;21.90;10.53;;;;;;;6.98;76.01;101421.00;125430;1099;101839;-83
2023/12/19 01:01:52;;;;;;;24.00;10.63;;;;;;;7.01;74.92;101428.11;125342;1099;104172;-83
2023/12/19 01:04:23;;;;;;;23.87;11.13;;;;;;;6.98;75.73;101425.30;125012;1099;103289;-82
2023/12/19 01:06:54;;;;;;;22.10;10.80;;;;;;;6.97;76.57;101431.34;125487;1099;103053;-79
2023/12/19 01:09:26;;;;;;;24.70;12.17;;;;;;;6.97;75.25;101424.41;125065;1099;101904;-84
2023/12/19 01:11:58;;;;;;;24.03;11.93;;;;;;;6.97;76.30;101424.41;125114;1099;104179;-83
2023/12/19 01:14:29;;;;;;;24.20;11.57;;;;;;;6.93;77.43;101427.61;125105;1099;104146;-81
2023/12/19 01:17:00;;;;;;;22.73;11.00;;;;;;;6.92;77.12;101417.07;125059;1102;101984;-81
2023/12/19 01:19:32;;;;;;;24.57;12.33;;;;;;;6.88;76.62;101418.59;125117;1099;104268;-83
2023/12/19 01:22:03;;;;;;;26.63;13.13;;;;;;;6.86;76.51;101414.06;125359;1099;102037;-82
2023/12/19 01:24:35;;;;;;;25.73;11.80;;;;;;;6.84;78.22;101421.82;125072;1099;104362;-83
2023/12/19 01:27:06;;;;;;;26.37;12.87;;;;;;;6.79;76.95;101413.69;125578;1099;104298;-84
2023/12/19 01:29:37;;;;;;;22.00;11.23;;;;;;;6.76;76.58;101423.00;125525;1099;101879;-83
2023/12/19 01:32:09;;;;;;;26.63;12.43;;;;;;;6.74;77.19;101415.08;125025;1099;102510;-83
2023/12/19 01:34:40;;;;;;;23.37;12.03;;;;;;;6.72;77.14;101403.64;125121;1099;102236;-83
2023/12/19 01:37:14;;;;;;;26.87;14.03;;;;;;;6.71;77.71;101399.22;124980;1102;104336;-82
2023/12/19 01:39:45;;;;;;;25.33;12.50;;;;;;;6.68;78.06;101395.52;124950;1099;102125;-82
2023/12/19 01:42:17;;;;;;;26.53;12.43;;;;;;;6.66;78.02;101398.02;125058;1099;102051;-82
2023/12/19 01:45:09;;;;;;;25.10;12.17;;;;;;;6.60;77.27;101390.69;125034;1099;104252;-82
2023/12/19 01:47:43;;;;;;;24.33;12.30;;;;;;;6.56;77.56;101391.31;125249;1099;102097;-81
2023/12/19 01:50:13;;;;;;;;;;;;;;;6.53;78.04;101390.18;125109;1099;104182;-83
2023/12/19 01:52:50;;;;;;;25.53;12.70;;;;;;;6.51;78.46;101383.97;125140;1100;104269;-83
2023/12/19 01:55:23;;;;;;;22.37;11.97;;;;;;;6.47;77.77;101383.77;125148;1099;103207;-82
2023/12/19 01:57:56;;;;;;;25.00;13.33;;;;;;;6.44;77.56;101388.78;125111;1099;102046;-82
2023/12/19 02:00:27;;;;;;;26.97;12.90;;;;;;;6.43;77.71;101383.47;125108;1099;101885;-82
2023/12/19 02:02:59;;;;;;;28.37;13.53;;;;;;;6.40;77.36;101381.55;125173;1099;101799;-83
2023/12/19 02:05:33;;;;;;;25.62;14.10;;;;;;;6.39;77.53;101384.98;125091;1099;102033;-82
2023/12/19 02:08:05;;;;;;;25.07;12.57;;;;;;;6.37;77.75;101381.34;125093;1099;101928;-83
2023/12/19 02:10:36;;;;;;;26.10;13.37;;;;;;;6.35;77.12;101382.06;125318;1099;101922;-83
2023/12/19 02:13:08;;;;;;;27.37;13.10;;;;;;;6.35;77.40;101382.06;125184;1099;104181;-81
2023/12/19 02:15:39;;;;;;;27.60;12.80;;;;;;;6.34;77.33;101381.13;125214;1102;101843;-83
2023/12/19 02:18:17;;;;;;;25.77;13.27;;;;;;;6.33;76.75;101379.35;125093;1099;102105;-81
2023/12/19 02:20:49;;;;;;;23.10;12.10;;;;;;;6.35;77.48;101380.34;125609;1099;104297;-82
2023/12/19 02:23:20;;;;;;;25.37;13.67;;;;;;;6.36;77.98;101384.77;125383;1102;104207;-82
2023/12/19 02:25:51;;;;;;;28.47;13.50;;;;;;;6.37;77.48;101380.45;125620;1099;101839;-82
2023/12/19 02:28:22;;;;;;;27.17;13.50;;;;;;;6.37;77.43;101383.95;125444;1099;102237;-83
2023/12/19 02:30:54;;;;;;;27.47;13.70;;;;;;;6.36;77.12;101370.81;125705;1099;104178;-82
2023/12/19 02:33:25;;;;;;;26.07;13.57;;;;;;;6.34;77.32;101370.70;125121;1099;104303;-82
2023/12/19 02:35:56;;;;;;;28.47;14.03;;;;;;;6.33;77.26;101368.00;125062;1099;104227;-83
2023/12/19 02:38:27;;;;;;;28.13;14.77;;;;;;;6.29;77.44;101362.61;124941;1099;101719;-82
2023/12/19 02:40:58;;;;;;;25.43;13.03;;;;;;;6.28;77.76;101365.12;125023;1099;104230;-83
2023/12/19 02:43:29;;;;;;;30.67;14.60;;;;;;;6.26;78.17;101369.30;125111;1098;102284;-82
2023/12/19 02:46:00;;;;;;;26.60;13.57;;;;;;;6.22;77.82;101362.99;125631;1098;104238;-82
2023/12/19 02:48:32;;;;;;;28.07;14.33;;;;;;;6.20;78.42;101361.07;125165;1101;102083;-82
2023/12/19 02:51:03;;;;;;;27.50;14.00;;;;;;;6.19;78.24;101361.89;125132;1099;102249;-82
2023/12/19 02:53:36;;;;;;;25.53;13.73;;;;;;;6.17;78.36;101367.00;125239;1099;101827;-83
2023/12/19 02:56:08;;;;;;;30.13;15.03;;;;;;;6.14;78.33;101364.19;125162;1099;102057;-83
2023/12/19 02:58:40;;;;;;;30.07;14.17;;;;;;;6.11;78.12;101359.66;125040;1099;101839;-83
2023/12/19 03:01:11;;;;;;;27.23;13.53;;;;;;;6.08;77.79;101354.24;125125;1099;102057;-82
2023/12/19 03:03:44;;;;;;;27.17;13.77;;;;;;;6.07;78.82;101356.75;125219;1099;101990;-83
2023/12/19 03:06:16;;;;;;;32.63;14.30;;;;;;;6.03;78.53;101354.72;125780;1099;104228;-83
2023/12/19 03:08:49;;;;;;;28.90;13.37;;;;;;;6.01;78.44;101356.33;125656;1099;102156;-82
2023/12/19 03:11:20;;;;;;;27.47;14.40;;;;;;;5.98;78.47;101354.41;125274;1099;102096;-83
2023/12/19 03:13:51;;;;;;;30.07;14.80;;;;;;;5.97;78.91;101356.91;125482;1099;101875;-83
2023/12/19 03:16:22;;;;;;;26.90;14.70;;;;;;;5.96;78.63;101355.09;125071;1099;101858;-83
2023/12/19 03:18:53;;;;;;;29.47;14.93;;;;;;;5.96;78.50;101353.38;125252;1099;101848;-83
2023/12/19 03:21:24;;;;;;;28.70;14.53;;;;;;;5.94;78.83;101360.20;125054;1099;102115;-83
2023/12/19 03:23:55;;;;;;;28.37;14.37;;;;;;;5.93;78.58;101367.09;125122;1099;102041;-82
2023/12/19 03:26:26;;;;;;;26.63;14.17;;;;;;;5.93;78.83;101366.20;125556;1099;104223;-81
2023/12/19 03:28:57;;;;;;;27.83;14.77;;;;;;;5.94;78.76;101361.09;126185;1099;104256;-81
2023/12/19 03:31:31;;;;;;;28.23;14.03;;;;;;;5.97;78.68;101362.13;125394;1099;102189;-82
2023/12/19 03:34:02;;;;;;;31.83;15.17;;;;;;;5.98;78.80;101364.83;126035;1099;104218;-82
2023/12/19 03:36:33;;;;;;;29.37;15.03;;;;;;;5.98;78.94;101359.62;125442;1099;102215;-82
2023/12/19 03:39:07;;;;;;;27.63;14.73;;;;;;;6.01;78.83;101369.36;125817;1099;102233;-81
2023/12/19 03:41:38;;;;;;;28.80;14.90;;;;;;;6.01;78.77;101367.64;125900;1102;101792;-82
2023/12/19 03:44:09;;;;;;;29.47;14.77;;;;;;;6.02;78.65;101365.96;125652;1099;104179;-82
2023/12/19 03:46:40;;;;;;;28.10;14.53;;;;;;;6.04;78.93;101366.95;126118;1098;101925;-82
2023/12/19 03:49:12;;;;;;;27.27;14.07;;;;;;;6.02;79.05;101366.86;126416;1099;104300;-81
2023/12/19 03:51:43;;;;;;;27.07;14.20;;;;;;;6.03;78.85;101362.53;125964;1099;102061;-82
2023/12/19 03:54:14;;;;;;;27.73;14.80;;;;;;;6.02;79.06;101363.36;125815;1098;104232;-81
2023/12/19 03:56:46;;;;;;;30.53;14.83;;;;;;;6.02;78.90;101369.46;126163;1099;102192;-82
2023/12/19 03:59:17;;;;;;;29.93;15.83;;;;;;;6.03;78.91;101368.67;126186;1099;102046;-82
2023/12/19 04:01:48;;;;;;;30.73;15.43;;;;;;;6.04;79.14;101374.78;127389;1098;101678;-82
2023/12/19 04:04:19;;;;;;;29.83;15.23;;;;;;;6.05;79.21;101372.28;125794;1102;102626;-82
2023/12/19 04:06:50;;;;;;;26.70;14.30;;;;;;;6.05;78.96;101372.28;125827;1099;102085;-82
2023/12/19 04:09:22;;;;;;;30.27;14.67;;;;;;;6.06;79.10;101374.09;126056;1099;101788;-82
2023/12/19 04:11:53;;;;;;;31.47;15.47;;;;;;;6.07;79.36;101375.87;126599;1099;102016;-82
2023/12/19 04:14:25;;;;;;;28.37;15.30;;;;;;;6.09;79.37;101379.52;126154;1099;102084;-83
2023/12/19 04:16:56;;;;;;;30.40;16.67;;;;;;;6.09;79.23;101376.91;126770;1099;102989;-82
2023/12/19 04:19:28;;;;;;;;;;;;;;;6.10;79.53;101378.69;126140;1099;102240;-83
2023/12/19 04:21:59;;;;;;;30.53;16.13;;;;;;;6.11;79.33;101377.91;126114;1099;101666;-82
2023/12/19 04:24:30;;;;;;;29.90;15.47;;;;;;;6.12;79.30;101378.80;126927;1098;101917;-81
2023/12/19 04:27:02;;;;;;;30.27;15.70;;;;;;;6.14;79.57;101376.30;125878;1100;102120;-81
2023/12/19 04:29:34;;;;;;;28.47;14.67;;;;;;;6.14;79.31;101384.11;127721;1099;101140;-83
2023/12/19 04:32:05;;;;;;;29.30;16.10;;;;;;;6.14;79.39;101377.22;125983;1099;101861;-82
2023/12/19 04:34:37;;;;;;;32.37;17.23;;;;;;;6.11;79.75;101367.48;125764;1099;102022;-82
2023/12/19 04:37:08;;;;;;;29.27;15.53;;;;;;;6.15;79.56;101378.11;127126;1098;102654;-82
2023/12/19 04:39:39;;;;;;;30.57;16.17;;;;;;;6.13;79.60;101379.72;126095;1099;102289;-82
2023/12/19 04:42:17;;;;;;;29.12;15.68;;;;;;;6.11;79.51;101380.51;126125;1099;104130;-82
2023/12/19 04:44:48;;;;;;;28.63;15.30;;;;;;;6.08;79.53;101390.72;126029;1099;104326;-82
2023/12/19 04:47:20;;;;;;;29.00;15.57;;;;;;;6.06;79.54;101392.33;126899;1099;101682;-82
2023/12/19 04:49:52;;;;;;;30.03;16.13;;;;;;;6.04;79.65;101387.80;126199;1099;104255;-82
2023/12/19 04:52:23;;;;;;;29.73;15.30;;;;;;;6.02;79.75;101386.81;125854;1099;104201;-82
2023/12/19 04:54:55;;;;;;;30.17;15.73;;;;;;;6.02;79.55;101395.52;125302;1102;104239;-82
2023/12/19 04:57:26;;;;;;;33.70;16.50;;;;;;;6.03;79.96;101399.94;125701;1099;101791;-82
2023/12/19 04:59:57;;;;;;;32.40;15.87;;;;;;;6.05;79.79;101397.44;125860;1099;104182;-82
2023/12/19 05:02:28;;;;;;;36.83;17.13;;;;;;;6.08;79.86;101405.47;125727;1099;104169;-82
2023/12/19 05:05:00;;;;;;;34.17;16.60;;;;;;;6.10;79.66;101396.04;125773;1099;102112;-82
2023/12/19 05:07:32;;;;;;;31.30;16.00;;;;;;;6.11;79.83;101401.36;125180;1099;104788;-83
2023/12/19 05:10:03;;;;;;;31.97;17.27;;;;;;;6.09;80.01;101397.75;125340;1099;101997;-83
2023/12/19 05:12:34;;;;;;;37.37;19.60;;;;;;;6.10;80.31;101393.44;125393;1099;101890;-82
2023/12/19 05:15:06;;;;;;;36.50;19.27;;;;;;;6.09;80.29;101389.94;125268;1099;104262;-82
2023/12/19 05:17:37;;;;;;;35.63;19.50;;;;;;;6.09;80.67;101389.94;125541;1099;107851;-83
2023/12/19 05:20:11;;;;;;;35.27;19.97;;;;;;;6.09;80.36;101389.94;125444;1099;104169;-82
2023/12/19 05:22:42;;;;;;;35.70;20.15;;;;;;;6.12;80.59;101389.22;125514;1099;102544;-82
2023/12/19 05:25:14;;;;;;;36.55;20.70;;;;;;;6.14;80.28;101382.43;126343;1099;101788;-82
2023/12/19 05:27:45;;;;;;;34.43;19.13;;;;;;;6.16;80.49;101374.72;126166;1099;101930;-82
2023/12/19 05:30:17;;;;;;;36.53;19.17;;;;;;;6.16;80.42;101375.61;126384;1099;101900;-81
2023/12/19 05:32:49;;;;;;;;;;;;;;;6.19;80.75;101378.42;125634;1099;104236;-81
2023/12/19 05:35:21;;;;;;;35.63;18.27;;;;;;;6.20;80.17;101376.70;126110;1099;103016;-81
2023/12/19 05:37:52;;;;;;;36.13;19.53;;;;;;;6.20;80.45;101376.70;125814;1099;102041;-81
2023/12/19 05:40:23;;;;;;;39.67;19.67;;;;;;;6.22;80.50;101376.02;125879;1099;101998;-81
2023/12/19 05:42:57;;;;;;;36.33;19.93;;;;;;;6.25;80.67;101375.34;125725;1099;102182;-81
2023/12/19 05:45:29;;;;;;;37.27;20.73;;;;;;;6.25;80.69;101383.16;126010;1099;101769;-81
2023/12/19 05:48:00;;;;;;;37.87;20.33;;;;;;;6.26;80.71;101379.73;125866;1099;104066;-82
2023/12/19 05:50:31;;;;;;;37.50;19.33;;;;;;;6.28;80.69;101379.04;125602;1099;104200;-81
2023/12/19 05:53:02;;;;;;;40.80;20.90;;;;;;;6.28;80.76;101381.65;125200;1099;104175;-79
2023/12/19 05:55:34;;;;;;;40.33;19.70;;;;;;;6.30;80.87;101376.54;125092;1099;104307;-79
2023/12/19 05:58:05;;;;;;;40.07;21.50;;;;;;;6.31;80.88;101373.14;125634;1099;103157;-80
2023/12/19 06:00:37;;;;;;;38.33;21.07;;;;;;;6.34;80.87;101372.42;125624;1099;102313;-80
2023/12/19 06:03:09;;;;;;;37.90;20.60;;;;;;;6.34;80.90;101369.81;127510;1098;101133;-79
2023/12/19 06:05:40;;;;;;;36.73;21.13;;;;;;;6.35;80.80;101375.13;125336;1099;102947;-82
2023/12/19 06:08:11;;;;;;;37.07;20.70;;;;;;;6.38;81.03;101384.88;125185;1100;104476;-83
2023/12/19 06:10:42;;;;;;;37.07;21.20;;;;;;;6.37;80.99;101383.05;125159;1099;104802;-82
2023/12/19 06:13:14;;;;;;;43.63;23.90;;;;;;;6.37;80.88;101381.34;125266;1099;102313;-81
2023/12/19 06:15:45;;;;;;;40.50;22.90;;;;;;;6.38;81.19;101372.73;125067;1102;104632;-79
2023/12/19 06:18:17;;;;;;;46.80;25.53;;;;;;;6.42;81.12;101376.44;125096;1099;103428;-78
2023/12/19 06:20:50;;;;;;;40.20;23.27;;;;;;;6.45;81.32;101379.24;125441;1099;102496;-78
2023/12/19 06:23:24;;;;;;;42.17;24.40;;;;;;;6.46;81.45;101370.63;125323;1098;101829;-77
2023/12/19 06:25:58;;;;;;;42.73;23.10;;;;;;;6.51;81.60;101378.76;125021;1099;104251;-77
2023/12/19 06:28:30;;;;;;;42.23;23.63;;;;;;;6.52;81.41;101377.97;124939;1099;104177;-77
2023/12/19 06:31:01;;;;;;;49.73;24.80;;;;;;;6.53;81.56;101374.53;124870;1102;104366;-78
2023/12/19 06:33:32;;;;;;;45.53;25.87;;;;;;;6.53;81.51;101380.67;124725;1099;104319;-77
2023/12/19 06:36:04;;;;;;;46.57;24.00;;;;;;;6.56;81.75;101375.66;125022;1099;104278;-78
2023/12/19 06:38:38;;;;;;;60.20;30.80;;;;;;;6.58;81.69;101370.55;124940;1099;102729;-79
2023/12/19 06:41:09;;;;;;;62.07;32.03;;;;;;;6.62;81.55;101372.53;125955;1099;104240;-78
2023/12/19 06:43:42;;;;;;;59.30;28.73;;;;;;;6.64;81.79;101377.06;124840;1099;104323;-79
2023/12/19 06:46:18;;;;;;;60.97;32.13;;;;;;;6.69;81.68;101369.54;124840;1099;104249;-78
2023/12/19 06:48:50;;;;;;;63.17;32.80;;;;;;;6.72;81.87;101374.95;124675;1099;104189;-76
2023/12/19 06:51:28;;;;;;;67.07;33.30;;;;;;;6.73;81.58;101376.77;125822;1099;101818;-79
2023/12/19 06:54:06;;;;;;;62.40;33.05;;;;;;;6.78;81.91;101383.18;125540;1098;101785;-79
2023/12/19 06:56:39;;;;;;;58.87;31.37;;;;;;;6.84;81.43;101375.75;125966;1099;104326;-80
2023/12/19 06:59:13;;;;;;;58.80;32.87;;;;;;;6.92;81.79;101364.89;124870;1099;102017;-78
2023/12/19 07:01:48;;;;;;;70.10;36.60;;;;;;;6.99;81.74;101361.88;124596;1102;104290;-80
2023/12/19 07:04:22;;;;;;;68.12;35.35;;;;;;;7.08;81.84;101357.25;124895;1099;101970;-79
2023/12/19 07:06:54;;;;;;;66.62;36.25;;;;;;;7.14;81.78;101355.02;126396;1099;104203;-77
2023/12/19 07:09:28;;;;;;;64.57;34.40;;;;;;;7.24;82.08;101345.16;125205;1099;104233;-79
2023/12/19 07:12:02;;;;;;;60.27;31.40;;;;;;;7.31;82.00;101345.64;126746;1097;102053;-78
2023/12/19 07:14:33;;;;;;;67.47;35.27;;;;;;;7.36;81.93;101343.32;127004;1098;101699;-77
2023/12/19 07:17:07;;;;;;;70.97;35.03;;;;;;;7.42;81.72;101341.09;125842;1098;104195;-76
2023/12/19 07:19:43;;;;;;;65.17;39.27;;;;;;;7.55;82.42;101343.62;126160;1099;101104;-76
2023/12/19 07:22:17;;;;;;;68.07;38.60;;;;;;;7.61;82.22;101339.61;126066;1099;104328;-74
2023/12/19 07:24:46;;;;;;;;;;;;;;;7.59;81.94;101333.37;124691;1098;104163;-74
2023/12/19 07:27:18;;;;;;;73.43;41.93;;;;;;;7.61;81.58;101337.00;124651;1099;101871;-74
2023/12/19 07:29:52;;;;;;;76.57;43.30;;;;;;;7.66;81.96;101330.34;124515;1100;102044;-76
2023/12/19 07:32:25;;;;;;;73.57;41.93;;;;;;;7.69;81.56;101325.30;124503;1099;104220;-77
2023/12/19 07:34:56;;;;;;;66.47;41.50;;;;;;;7.77;82.16;101326.66;125285;1099;102044;-77
2023/12/19 07:37:30;;;;;;;64.77;36.77;;;;;;;7.89;81.89;101335.23;125820;1098;104079;-78
2023/12/19 07:40:05;;;;;;;69.30;41.30;;;;;;;7.93;81.98;101331.08;125416;1099;104261;-79
2023/12/19 07:42:37;;;;;;;69.47;41.00;;;;;;;8.05;81.74;101326.58;124670;1099;104392;-78
2023/12/19 07:45:13;;;;;;;70.63;42.73;;;;;;;8.19;81.55;101326.50;124362;1099;104227;-75
2023/12/19 07:47:46;;;;;;;69.57;38.60;;;;;;;8.23;82.16;101316.31;125481;1099;101895;-80
2023/12/19 07:50:19;;;;;;;61.85;35.70;;;;;;;8.30;82.33;101314.95;125239;1099;101786;-77
2023/12/19 07:52:51;;;;;;;68.50;36.53;;;;;;;8.39;81.64;101327.66;126392;1099;104140;-79
2023/12/19 07:55:24;;;;;;;65.27;37.10;;;;;;;8.43;82.18;101308.70;125375;1099;104281;-78
2023/12/19 07:57:55;;;;;;;54.60;32.57;;;;;;;8.49;81.80;101303.84;125826;1098;102265;-76
2023/12/19 08:00:26;;;;;;;56.87;33.70;;;;;;;8.49;81.93;101301.23;125284;1098;102476;-77
2023/12/19 08:02:58;;;;;;;56.00;33.07;;;;;;;8.49;81.49;101293.39;126243;1098;104399;-74
2023/12/19 08:05:32;;;;;;;55.60;31.67;;;;;;;8.59;81.63;101293.11;126863;1098;104220;-75
2023/12/19 08:08:08;;;;;;;50.08;29.00;;;;;;;8.69;81.33;101286.66;124599;1099;104271;-74
2023/12/19 08:10:42;;;;;;;56.13;30.87;;;;;;;8.82;81.49;101298.73;126485;1098;104233;-78
2023/12/19 08:13:27;;;;;;;;;;;;;;;;;;;;;
2023/12/19 08:19:56;;;;;;;;;;;;;;;8.99;81.71;101287.47;125127;1099;104236;-74
2023/12/19 08:22:29;;;;;;;46.95;25.65;;;;;;;9.05;82.10;101284.27;124525;1098;104144;-76
2023/12/19 08:25:02;;;;;;;47.98;25.45;;;;;;;9.12;81.52;101283.80;124930;1099;101847;-76
2023/12/19 08:27:35;;;;;;;39.23;22.82;;;;;;;9.30;82.00;101278.66;125864;1099;103950;-77
2023/12/19 08:30:15;;;;;;;38.33;22.23;;;;;;;9.50;81.50;101276.17;125989;1099;101700;-75
2023/12/19 08:32:49;;;;;;;35.07;19.63;;;;;;;9.63;81.32;101275.08;127146;1098;104114;-75
2023/12/19 08:35:24;;;;;;;27.07;15.20;;;;;;;9.67;81.87;101274.43;124389;1099;101873;-76
2023/12/19 08:37:55;;;;;;;25.43;14.10;;;;;;;9.72;81.25;101278.18;125402;1099;102174;-76
2023/12/19 08:40:26;;;;;;;27.67;13.60;;;;;;;9.71;81.19;101272.05;124361;1099;102458;-76
2023/12/19 08:42:58;;;;;;;26.67;12.87;;;;;;;9.67;81.01;101262.22;124624;1099;104176;-77
2023/12/19 08:45:31;;;;;;;24.23;12.27;;;;;;;9.63;81.39;101261.98;124601;1102;104265;-77
2023/12/19 08:48:05;;;;;;;26.97;12.10;;;;;;;9.62;80.91;101254.96;125015;1099;102012;-77
2023/12/19 08:50:38;;;;;;;28.93;12.93;;;;;;;9.65;81.26;101261.25;124832;1098;104169;-76
2023/12/19 08:53:14;;;;;;;27.82;13.00;;;;;;;9.79;81.30;101264.58;124393;1099;104357;-75
2023/12/19 08:55:47;;;;;;;26.97;12.27;;;;;;;9.89;80.44;101263.31;124654;1099;104172;-73
2023/12/19 08:58:18;;;;;;;24.73;12.07;;;;;;;9.98;81.03;101252.41;124845;1099;102239;-75
2023/12/19 09:00:56;;;;;;;27.63;13.10;;;;;;;10.05;80.81;101241.38;124652;1099;104156;-77
2023/12/19 09:03:29;;;;;;;25.03;12.13;;;;;;;10.14;81.25;101246.20;124588;1099;102202;-74
2023/12/19 09:06:02;;;;;;;26.00;12.53;;;;;;;10.24;80.50;101243.21;124532;1102;103479;-76
2023/12/19 09:08:36;;;;;;;23.67;11.43;;;;;;;10.27;80.54;101235.49;124290;1099;102250;-75
2023/12/19 09:11:10;;;;;;;24.37;11.90;;;;;;;10.28;80.27;101231.13;124804;1098;104239;-77
2023/12/19 09:13:51;;;;;;;25.87;11.57;;;;;;;10.25;79.95;101230.17;124806;1099;103693;-78
2023/12/19 09:16:22;;;;;;;27.13;12.13;;;;;;;10.34;80.38;101226.22;124986;1099;103682;-76
2023/12/19 09:19:00;;;;;;;26.00;11.80;;;;;;;10.52;80.46;101231.47;125015;1099;103965;-77
2023/12/19 09:21:36;;;;;;;24.87;11.97;;;;;;;10.61;80.30;101216.13;124799;1099;103628;-75
2023/12/19 09:24:10;;;;;;;25.60;12.17;;;;;;;10.65;80.52;101215.45;124495;1099;102823;-75
2023/12/19 09:26:44;;;;;;;28.97;13.47;;;;;;;10.68;80.21;101205.09;125231;1099;102158;-78
2023/12/19 09:29:22;;;;;;;30.53;15.07;;;;;;;10.70;80.03;101205.16;124859;1099;101894;-78
2023/12/19 09:31:54;;;;;;;26.13;14.17;;;;;;;10.70;80.16;101200.80;124533;1099;102671;-74
2023/12/19 09:34:30;;;;;;;31.03;14.83;;;;;;;10.67;79.64;101186.65;124535;1099;102736;-76
2023/12/19 09:37:10;;;;;;;30.20;15.68;;;;;;;10.59;79.15;101187.18;124404;1099;104163;-74
2023/12/19 09:39:42;;;;;;;31.97;17.27;;;;;;;10.59;79.62;101188.91;124417;1099;104146;-75
2023/12/19 09:42:19;;;;;;;26.60;13.83;;;;;;;10.63;79.84;101183.00;124278;1099;102110;-74
2023/12/19 09:44:51;;;;;;;30.90;14.80;;;;;;;10.68;79.57;101189.34;124134;1099;103679;-76
2023/12/19 09:47:30;;;;;;;29.20;13.67;;;;;;;10.72;79.26;101187.75;124071;1099;104045;-77
2023/12/19 09:50:04;;;;;;;28.93;13.67;;;;;;;10.86;79.89;101188.38;124091;1102;102107;-75
2023/12/19 09:52:37;;;;;;;28.52;13.75;;;;;;;10.96;79.52;101201.11;123926;1102;104207;-74
2023/12/19 09:55:15;;;;;;;26.43;12.27;;;;;;;11.04;79.36;101188.33;124642;1102;102017;-76
2023/12/19 09:57:53;;;;;;;21.60;10.70;;;;;;;11.09;79.23;101169.30;124572;1099;102614;-74
2023/12/19 10:00:31;;;;;;;31.70;12.83;;;;;;;11.19;79.39;101167.08;124936;1099;101923;-77
2023/12/19 10:03:18;;;;;;;27.70;11.97;;;;;;;11.18;79.20;101158.31;125464;1099;104242;-76
2023/12/19 10:05:51;;;;;;;25.90;12.13;;;;;;;11.30;78.69;101171.09;125055;1099;109520;-76
2023/12/19 10:08:23;;;;;;;21.77;10.33;;;;;;;11.36;78.42;101170.44;124953;1099;104192;-75
2023/12/19 10:10:58;;;;;;;22.77;10.40;;;;;;;11.43;78.53;101162.00;124631;1102;104246;-74
2023/12/19 10:13:32;;;;;;;23.30;10.00;;;;;;;11.48;78.67;101155.20;124698;1099;104182;-75
2023/12/19 10:16:11;;;;;;;22.87;10.67;;;;;;;11.55;78.16;101154.64;126446;1098;102043;-75
2023/12/19 10:18:56;;;;;;;29.97;12.17;;;;;;;11.62;78.16;101147.91;125964;1098;104326;-74
2023/12/19 10:21:28;;;;;;;28.00;12.07;;;;;;;11.67;78.13;101151.61;124468;1099;102998;-74
2023/12/19 10:24:11;;;;;;;23.03;11.23;;;;;;;11.69;77.93;101152.59;124358;1099;104255;-74
2023/12/19 10:27:15;;;;;;;26.27;11.00;;;;;;;11.65;77.72;101137.52;124375;1099;104081;-75
2023/12/19 10:29:49;;;;;;;25.97;11.20;;;;;;;11.68;77.40;101148.16;125587;1099;104233;-73
2023/12/19 10:32:23;;;;;;;25.93;10.47;;;;;;;11.62;77.04;101142.64;125805;1098;101820;-75
2023/12/19 10:35:01;;;;;;;23.37;9.83;;;;;;;11.58;76.51;101140.74;124398;1099;104233;-74
2023/12/19 10:37:36;;;;;;;24.80;10.40;;;;;;;11.61;76.88;101130.33;124586;1099;104172;-76
2023/12/19 10:40:19;;;;;;;24.57;10.73;;;;;;;11.63;75.95;101110.28;125153;1099;104365;-76
2023/12/19 10:42:58;;;;;;;20.37;8.30;;;;;;;11.64;75.95;101115.59;125182;1099;104256;-76
2023/12/19 10:45:39;;;;;;;19.33;8.90;;;;;;;11.66;75.43;101118.29;125104;1099;104159;-76
2023/12/19 10:48:16;;;;;;;22.50;8.77;;;;;;;11.67;75.30;101117.44;126108;1098;101807;-77
2023/12/19 10:50:53;;;;;;;;;;;;;;;11.62;73.46;101109.36;124959;1099;104275;-76
2023/12/19 10:53:25;;;;;;;19.27;8.33;;;;;;;11.69;74.55;101111.42;124663;1099;101986;-74
2023/12/19 10:56:08;;;;;;;20.40;7.90;;;;;;;11.72;74.62;101107.11;124445;1099;104229;-76
2023/12/19 10:58:47;;;;;;;17.25;6.92;;;;;;;11.70;73.84;101109.67;124300;1102;102414;-76
2023/12/19 11:01:22;;;;;;;15.67;6.60;;;;;;;11.66;72.32;101105.15;124385;1099;104507;-74
2023/12/19 11:03:58;;;;;;;18.50;8.13;;;;;;;11.62;72.42;101116.36;124976;1102;102024;-77
2023/12/19 11:06:36;;;;;;;16.77;7.40;;;;;;;11.57;72.55;101116.16;125619;1102;101822;-79
2023/12/19 11:09:16;;;;;;;17.73;7.43;;;;;;;11.59;72.62;101116.23;124904;1102;104561;-77
2023/12/19 11:11:50;;;;;;;16.40;7.30;;;;;;;11.57;71.83;101108.28;124614;1099;104099;-76
2023/12/19 11:14:24;;;;;;;22.27;8.10;;;;;;;11.56;72.05;101110.84;125856;1098;101907;-79
2023/12/19 11:17:03;;;;;;;22.35;8.73;;;;;;;11.54;71.91;101109.90;126018;1099;104338;-81
2023/12/19 11:19:47;;;;;;;18.13;7.70;;;;;;;11.51;71.85;101101.06;125360;1099;102190;-81
2023/12/19 11:25:39;;;;;;;17.83;7.57;;;;;;;11.48;71.31;101094.76;124298;1100;103227;-76
2023/12/19 11:28:11;;;;;;;19.90;8.10;;;;;;;11.45;71.23;101087.67;124853;1102;102371;-75
2023/12/19 11:30:43;;;;;;;18.67;7.93;;;;;;;11.43;71.18;101070.92;124926;1099;104188;-74
2023/12/19 11:33:31;;;;;;;20.03;7.83;;;;;;;11.43;70.69;101072.66;124282;1098;104198;-77
2023/12/19 11:36:21;;;;;;;22.73;7.90;;;;;;;11.42;70.67;101066.52;124253;1099;104675;-76
2023/12/19 11:39:27;;;;;;;17.67;6.70;;;;;;;11.42;70.45;101055.09;124461;1100;104166;-76